Time;durP1;ratioP1;P1;durP2;ratioP2;P2;SDS_P1;SDS_P2;PMS_P1;PMS_P2;Temp;Humidity;BMP_temperature;BMP_pressure;BME280_temperature;BME280_humidity;BME280_pressure;Samples;Min_cycle;Max_cycle;Signal;HPM_P1;HPM_P2
2021/11/14 00:02:13;;;;;;;67.05;32.83;;;9.90;99.90;;;;;;5105664;28;20079;-70
2021/11/14 00:04:39;;;;;;;66.35;32.50;;;9.90;99.90;;;;;;5120145;28;20044;-70
2021/11/14 00:07:04;;;;;;;56.90;31.33;;;9.80;99.90;;;;;;5126011;28;20046;-70
2021/11/14 00:09:30;;;;;;;56.00;31.08;;;9.80;99.90;;;;;;5111405;28;20050;-70
2021/11/14 00:11:56;;;;;;;59.30;31.13;;;9.80;99.90;;;;;;5136363;28;20035;-70
2021/11/14 00:14:23;;;;;;;54.45;31.23;;;9.90;99.90;;;;;;5123686;28;20119;-70
2021/11/14 00:16:50;;;;;;;63.17;30.90;;;9.90;99.90;;;;;;5120934;28;20058;-70
2021/11/14 00:19:16;;;;;;;69.38;32.90;;;9.90;99.90;;;;;;5130711;28;20095;-70
2021/11/14 00:21:42;;;;;;;75.55;34.22;;;9.90;99.90;;;;;;5105434;28;20058;-70
2021/11/14 00:24:12;;;;;;;71.13;33.35;;;9.90;99.90;;;;;;5140911;28;20039;-70
2021/11/14 00:26:40;;;;;;;67.85;33.63;;;9.90;99.90;;;;;;5126530;28;20050;-70
2021/11/14 00:29:07;;;;;;;81.57;34.58;;;9.90;99.90;;;;;;5124555;28;20099;-70
2021/11/14 00:31:32;;;;;;;57.50;30.17;;;9.90;99.90;;;;;;5143722;28;20047;-70
2021/11/14 00:33:58;;;;;;;58.17;30.35;;;9.90;99.90;;;;;;5110247;28;20049;-70
2021/11/14 00:36:28;;;;;;;67.38;32.00;;;9.90;99.90;;;;;;5119727;28;20575;-70
2021/11/14 00:38:55;;;;;;;69.25;32.85;;;10.00;99.90;;;;;;5144517;28;20060;-70
2021/11/14 00:41:22;;;;;;;73.35;31.40;;;9.90;99.90;;;;;;5122947;28;20177;-70
2021/11/14 00:43:50;;;;;;;61.53;30.00;;;9.90;99.90;;;;;;5126649;28;20065;-70
2021/11/14 00:46:16;;;;;;;71.65;32.88;;;9.90;99.90;;;;;;5119838;28;20118;-70
2021/11/14 00:48:42;;;;;;;54.33;28.27;;;9.90;99.90;;;;;;5126487;28;20517;-70
2021/11/14 00:51:14;;;;;;;53.35;29.67;;;9.90;99.90;;;;;;5113307;28;20039;-70
2021/11/14 00:53:41;;;;;;;52.90;27.52;;;9.90;99.90;;;;;;5142015;28;20059;-70
2021/11/14 00:56:07;;;;;;;54.25;28.17;;;9.90;99.90;;;;;;5119330;28;20035;-70
2021/11/14 00:58:33;;;;;;;55.65;29.20;;;9.90;99.90;;;;;;5115930;28;20054;-70
2021/11/14 01:00:59;;;;;;;54.25;28.92;;;10.00;99.90;;;;;;5112418;28;20470;-70
2021/11/14 01:03:25;;;;;;;53.38;30.50;;;10.00;99.90;;;;;;5103023;27;20079;-70
2021/11/14 01:05:51;;;;;;;69.43;31.90;;;10.00;99.90;;;;;;5130449;27;20046;-70
2021/11/14 01:08:17;;;;;;;61.50;30.33;;;10.00;99.90;;;;;;5123289;27;20063;-70
2021/11/14 01:10:48;;;;;;;58.53;29.45;;;10.00;99.90;;;;;;5130257;27;20055;-70
2021/11/14 01:13:14;;;;;;;54.53;29.73;;;10.00;99.90;;;;;;5124907;28;20074;-70
2021/11/14 01:15:41;;;;;;;57.58;30.45;;;10.00;99.90;;;;;;5121046;27;20601;-70
2021/11/14 01:18:07;;;;;;;55.97;30.67;;;10.00;99.90;;;;;;5120074;28;20100;-70
2021/11/14 01:20:37;;;;;;;53.25;28.42;;;10.00;99.90;;;;;;5128723;27;20106;-70
2021/11/14 01:23:05;;;;;;;54.85;28.75;;;10.00;99.90;;;;;;5122017;28;20046;-70
2021/11/14 01:25:32;;;;;;;47.75;27.77;;;10.00;99.90;;;;;;5129982;27;20088;-70
2021/11/14 01:27:59;;;;;;;49.55;27.90;;;10.00;99.90;;;;;;5122802;27;20043;-70
2021/11/14 01:30:28;;;;;;;44.17;26.77;;;10.00;99.90;;;;;;5126609;27;20053;-70
2021/11/14 01:32:55;;;;;;;44.67;26.83;;;10.00;99.90;;;;;;5120379;27;20131;-70
2021/11/14 01:35:21;;;;;;;44.28;27.20;;;10.00;99.90;;;;;;5127099;27;20070;-70
2021/11/14 01:37:49;;;;;;;46.15;26.98;;;10.00;99.90;;;;;;5126122;27;20051;-70
2021/11/14 01:40:19;;;;;;;47.22;27.25;;;10.00;99.90;;;;;;5129498;27;20043;-70
2021/11/14 01:42:46;;;;;;;41.28;25.52;;;10.00;99.90;;;;;;5125842;27;20043;-70
2021/11/14 01:45:12;;;;;;;43.45;26.73;;;10.00;99.90;;;;;;5109663;27;20077;-70
2021/11/14 01:47:39;;;;;;;43.75;25.70;;;10.00;99.90;;;;;;5128995;27;20043;-70
2021/11/14 01:50:08;;;;;;;41.30;26.58;;;10.00;99.90;;;;;;5106203;27;20039;-70
2021/11/14 01:52:34;;;;;;;42.50;26.20;;;10.10;99.90;;;;;;5125693;27;20062;-70
2021/11/14 01:54:59;;;;;;;42.15;26.20;;;10.00;99.90;;;;;;5128962;27;20134;-70
2021/11/14 01:57:26;;;;;;;44.97;26.90;;;10.00;99.90;;;;;;5146641;27;20039;-70
2021/11/14 01:59:52;;;;;;;42.80;25.80;;;10.00;99.90;;;;;;5148225;27;20044;-70
2021/11/14 02:02:18;;;;;;;42.38;25.73;;;10.00;99.90;;;;;;5129903;27;20112;-70
2021/11/14 02:04:44;;;;;;;48.35;26.90;;;10.00;99.90;;;;;;5148303;27;20053;-70
2021/11/14 02:07:13;;;;;;;42.67;25.58;;;10.00;99.90;;;;;;5148280;27;20047;-70
2021/11/14 02:09:39;;;;;;;53.55;29.05;;;10.00;99.90;;;;;;5129431;27;20104;-70
2021/11/14 02:12:05;;;;;;;42.88;27.48;;;10.00;99.90;;;;;;5129635;27;20055;-70
2021/11/14 02:14:32;;;;;;;44.55;27.75;;;10.00;99.90;;;;;;5128518;27;20050;-70
2021/11/14 02:16:59;;;;;;;39.67;26.23;;;10.00;99.90;;;;;;5125550;28;20059;-70
2021/11/14 02:19:25;;;;;;;41.33;27.67;;;10.00;99.90;;;;;;5127169;28;20047;-70
2021/11/14 02:21:52;;;;;;;38.60;25.42;;;10.00;99.90;;;;;;5126228;28;20054;-70
2021/11/14 02:24:19;;;;;;;37.47;25.73;;;10.00;99.90;;;;;;5118719;28;20071;-70
2021/11/14 02:26:45;;;;;;;37.83;25.50;;;9.90;99.90;;;;;;5113666;27;20043;-70
2021/11/14 02:29:11;;;;;;;38.95;26.67;;;9.90;99.90;;;;;;5129325;27;20069;-70
2021/11/14 02:31:39;;;;;;;43.90;27.02;;;9.90;99.90;;;;;;5129436;27;20043;-70
2021/11/14 02:34:05;;;;;;;47.58;27.73;;;9.80;99.90;;;;;;5129348;27;20070;-70
2021/11/14 02:36:31;;;;;;;43.58;27.00;;;9.80;99.90;;;;;;5113530;28;20069;-70
2021/11/14 02:38:57;;;;;;;49.17;28.85;;;9.80;99.90;;;;;;5110833;27;20070;-70
2021/11/14 02:41:23;;;;;;;49.17;28.90;;;9.80;99.90;;;;;;5129194;27;20043;-70
2021/11/14 02:43:51;;;;;;;47.50;26.83;;;9.80;99.90;;;;;;5125218;28;20113;-70
2021/11/14 02:46:17;;;;;;;45.13;27.70;;;9.80;99.90;;;;;;5137396;27;20050;-70
2021/11/14 02:48:44;;;;;;;42.97;25.08;;;9.80;99.90;;;;;;5125589;28;20051;-70
2021/11/14 02:51:14;;;;;;;49.17;27.48;;;9.80;99.90;;;;;;5129287;27;20047;-70
2021/11/14 02:53:40;;;;;;;48.85;27.13;;;9.70;99.90;;;;;;5125502;28;20055;-70
2021/11/14 02:56:06;;;;;;;51.20;27.10;;;9.70;99.90;;;;;;5111695;27;20039;-70
2021/11/14 02:58:32;;;;;;;54.63;27.70;;;9.60;99.90;;;;;;5128499;27;20506;-70
2021/11/14 03:01:10;;;;;;;52.90;27.95;;;9.70;99.90;;;;;;5128821;27;20073;-70
2021/11/14 03:03:36;;;;;;;54.20;27.48;;;9.60;99.90;;;;;;5128897;27;20043;-70
2021/11/14 03:06:03;;;;;;;58.45;29.55;;;9.60;99.90;;;;;;5125441;28;20554;-70
2021/11/14 03:08:29;;;;;;;55.08;27.75;;;9.60;99.90;;;;;;5125155;28;20055;-70
2021/11/14 03:10:55;;;;;;;52.83;27.02;;;9.60;99.90;;;;;;5126615;28;20096;-70
2021/11/14 03:13:23;;;;;;;62.90;30.23;;;9.60;99.90;;;;;;5125457;28;20094;-70
2021/11/14 03:15:56;;;;;;;66.45;31.17;;;9.60;99.90;;;;;;5138245;27;20081;-70
2021/11/14 03:18:22;;;;;;;61.03;29.70;;;9.50;99.90;;;;;;5146952;27;20043;-70
2021/11/14 03:20:51;;;;;;;65.72;28.55;;;9.60;99.90;;;;;;5146202;27;20058;-70
2021/11/14 03:23:18;;;;;;;67.90;31.13;;;9.50;99.90;;;;;;5146232;27;20083;-70
2021/11/14 03:25:45;;;;;;;70.22;31.63;;;9.60;99.90;;;;;;5126162;28;20131;-70
2021/11/14 03:28:11;;;;;;;68.28;29.95;;;9.60;99.90;;;;;;5107629;28;20048;-70
2021/11/14 03:30:37;;;;;;;65.05;30.70;;;9.60;99.90;;;;;;5107908;28;20534;-70
2021/11/14 03:33:10;;;;;;;66.32;30.80;;;9.60;99.90;;;;;;5108098;28;20039;-70
2021/11/14 03:35:52;;;;;;;72.43;32.70;;;9.60;99.90;;;;;;5132336;27;20054;-70
2021/11/14 03:38:20;;;;;;;70.47;30.98;;;9.60;99.90;;;;;;5143151;27;20043;-70
2021/11/14 03:40:47;;;;;;;70.78;31.38;;;9.50;99.90;;;;;;5127693;27;20043;-70
2021/11/14 03:43:13;;;;;;;65.93;30.60;;;9.50;99.90;;;;;;5146703;27;20051;-70
2021/11/14 03:45:40;;;;;;;59.83;30.08;;;9.50;99.90;;;;;;5128380;27;20095;-70
2021/11/14 03:48:06;;;;;;;61.75;27.60;;;9.50;99.90;;;;;;5128099;27;20051;-70
2021/11/14 03:50:32;;;;;;;60.00;29.00;;;9.50;99.90;;;;;;5127820;27;20035;-70
2021/11/14 03:52:58;;;;;;;57.90;29.40;;;9.50;99.90;;;;;;5128164;27;20047;-70
2021/11/14 03:55:24;;;;;;;54.92;26.15;;;9.50;99.90;;;;;;5124408;28;20047;-70
2021/11/14 03:57:50;;;;;;;57.03;28.08;;;9.50;99.90;;;;;;5124189;28;20075;-70
2021/11/14 04:00:21;;;;;;;55.63;26.92;;;9.50;99.90;;;;;;5124210;28;20046;-70
2021/11/14 04:02:49;;;;;;;57.72;28.88;;;9.40;99.90;;;;;;5124127;28;20047;-70
2021/11/14 04:05:15;;;;;;;50.03;26.55;;;9.40;99.90;;;;;;5124303;28;20062;-70
2021/11/14 04:07:41;;;;;;;54.38;28.02;;;9.50;99.90;;;;;;5125629;28;20047;-70
2021/11/14 04:10:07;;;;;;;55.10;26.80;;;9.40;99.90;;;;;;5125358;28;20069;-70
2021/11/14 04:12:34;;;;;;;47.58;24.27;;;9.40;99.90;;;;;;5125550;28;20043;-70
2021/11/14 04:14:59;;;;;;;47.58;25.73;;;9.40;99.90;;;;;;5127430;28;20043;-70
2021/11/14 04:17:25;;;;;;;51.55;27.80;;;9.50;99.90;;;;;;5128146;28;20051;-70
2021/11/14 04:19:51;;;;;;;52.80;26.45;;;9.50;99.90;;;;;;5127158;28;20064;-70
2021/11/14 04:22:16;;;;;;;50.25;26.23;;;9.50;99.90;;;;;;5145906;28;20055;-70
2021/11/14 04:24:42;;;;;;;49.17;26.35;;;9.50;99.90;;;;;;5115460;28;20048;-70
2021/11/14 04:27:08;;;;;;;52.20;25.80;;;9.40;99.90;;;;;;5125403;28;20052;-70
2021/11/14 04:29:34;;;;;;;49.85;24.55;;;9.50;99.90;;;;;;5089844;28;20123;-70
2021/11/14 04:31:59;;;;;;;49.70;25.52;;;9.50;99.90;;;;;;5107069;28;20056;-70
2021/11/14 04:34:25;;;;;;;51.38;25.92;;;9.50;99.90;;;;;;5107181;28;20040;-70
2021/11/14 04:36:51;;;;;;;48.60;24.88;;;9.40;99.90;;;;;;5120000;28;20104;-70
2021/11/14 04:39:17;;;;;;;48.10;25.38;;;9.40;99.90;;;;;;5136225;27;20047;-70
2021/11/14 04:41:42;;;;;;;46.92;25.48;;;9.40;99.90;;;;;;5131325;27;20044;-70
2021/11/14 04:44:08;;;;;;;51.38;25.75;;;9.30;99.90;;;;;;5150014;27;20043;-70
2021/11/14 04:46:34;;;;;;;42.72;23.10;;;9.40;99.90;;;;;;5131593;27;20051;-70
2021/11/14 04:49:00;;;;;;;51.53;26.13;;;9.40;99.90;;;;;;5149935;27;20046;-70
2021/11/14 04:51:26;;;;;;;47.22;24.75;;;9.40;99.90;;;;;;5149475;27;20035;-70
2021/11/14 04:53:52;;;;;;;48.17;24.45;;;9.50;99.90;;;;;;5131433;27;20051;-70
2021/11/14 04:56:17;;;;;;;48.90;26.45;;;9.40;99.90;;;;;;5110491;27;20028;-70
2021/11/14 04:58:44;;;;;;;51.72;24.50;;;9.40;99.90;;;;;;5142702;27;20040;-70
2021/11/14 05:01:10;;;;;;;46.92;23.65;;;9.40;99.90;;;;;;5135817;27;20047;-69
2021/11/14 05:03:36;;;;;;;46.15;24.83;;;9.30;99.90;;;;;;5148898;27;20058;-70
2021/11/14 05:06:02;;;;;;;48.92;24.77;;;9.40;99.90;;;;;;5147251;27;20051;-70
2021/11/14 05:08:28;;;;;;;48.10;24.25;;;9.40;99.90;;;;;;5130026;27;20043;-70
2021/11/14 05:10:54;;;;;;;51.97;24.83;;;9.50;99.90;;;;;;5120209;27;20048;-70
2021/11/14 05:13:20;;;;;;;42.63;24.08;;;9.50;99.90;;;;;;5129048;27;20041;-70
2021/11/14 05:15:47;;;;;;;42.30;24.45;;;9.50;99.90;;;;;;5129085;27;20047;-70
2021/11/14 05:18:13;;;;;;;48.88;24.48;;;9.50;99.90;;;;;;5123123;27;20125;-70
2021/11/14 05:20:39;;;;;;;48.90;23.60;;;9.50;99.90;;;;;;5147990;27;20135;-70
2021/11/14 05:23:05;;;;;;;45.63;23.77;;;9.40;99.90;;;;;;5137216;27;20085;-70
2021/11/14 05:25:31;;;;;;;46.83;25.40;;;9.50;99.90;;;;;;5148184;27;20035;-70
2021/11/14 05:27:57;;;;;;;52.70;25.23;;;9.40;99.90;;;;;;5146963;27;20043;-70
2021/11/14 05:30:23;;;;;;;48.50;25.80;;;9.50;99.90;;;;;;5120592;27;20134;-74
2021/11/14 05:32:49;;;;;;;47.88;24.88;;;9.50;99.90;;;;;;5126714;27;20427;-70
2021/11/14 05:35:15;;;;;;;51.33;25.40;;;9.50;99.90;;;;;;5131450;27;20048;-70
2021/11/14 05:37:42;;;;;;;46.13;24.42;;;9.50;99.90;;;;;;5118848;28;20047;-70
2021/11/14 05:40:08;;;;;;;51.42;25.27;;;9.50;99.90;;;;;;5119792;27;20051;-70
2021/11/14 05:42:35;;;;;;;47.20;24.08;;;9.40;99.90;;;;;;5137704;27;20039;-70
2021/11/14 05:45:02;;;;;;;44.50;23.52;;;9.40;99.90;;;;;;5126695;27;20043;-70
2021/11/14 05:47:28;;;;;;;48.97;23.38;;;9.40;99.90;;;;;;5148166;27;20079;-70
2021/11/14 05:49:54;;;;;;;43.90;22.33;;;9.40;99.90;;;;;;5148717;27;20076;-70
2021/11/14 05:52:20;;;;;;;41.03;21.88;;;9.40;99.90;;;;;;5142711;27;20035;-70
2021/11/14 05:54:45;;;;;;;39.30;22.75;;;9.40;99.90;;;;;;5120424;27;20063;-70
2021/11/14 05:57:11;;;;;;;35.03;19.98;;;9.50;99.90;;;;;;5139402;27;20139;-70
2021/11/14 05:59:48;;;;;;;35.80;20.42;;;9.40;99.90;;;;;;5129259;27;20114;-70
2021/11/14 06:03:00;;;;;;;38.92;21.73;;;9.30;99.90;;;;;;5144967;27;20050;-70
2021/11/14 06:05:13;;;;;;;39.93;21.03;;;9.30;99.90;;;;;;5130371;27;20074;-70
2021/11/14 06:07:39;;;;;;;35.70;20.10;;;9.30;99.90;;;;;;5122498;28;20047;-70
2021/11/14 06:10:05;;;;;;;37.15;19.60;;;9.30;99.90;;;;;;5119373;27;20130;-70
2021/11/14 06:12:33;;;;;;;38.35;19.92;;;9.30;99.90;;;;;;5129478;27;20047;-70
2021/11/14 06:14:59;;;;;;;33.20;19.65;;;9.20;99.90;;;;;;5147395;27;20054;-70
2021/11/14 06:17:25;;;;;;;32.05;18.67;;;9.30;99.90;;;;;;5127264;27;20047;-70
2021/11/14 06:19:51;;;;;;;35.03;18.98;;;9.20;99.90;;;;;;5128403;27;20039;-70
2021/11/14 06:22:18;;;;;;;32.75;19.20;;;9.30;99.90;;;;;;5128665;27;20055;-70
2021/11/14 06:24:44;;;;;;;30.65;17.75;;;9.30;99.90;;;;;;5120945;27;20083;-70
2021/11/14 06:27:10;;;;;;;34.33;18.40;;;9.30;99.90;;;;;;5128968;27;20093;-70
2021/11/14 06:29:36;;;;;;;33.97;19.23;;;9.30;99.90;;;;;;5121678;27;20511;-70
2021/11/14 06:32:02;;;;;;;32.17;17.75;;;9.30;99.90;;;;;;5118095;27;20498;-70
2021/11/14 06:34:28;;;;;;;37.00;20.83;;;9.20;99.90;;;;;;5110407;27;20078;-70
2021/11/14 06:36:54;;;;;;;31.98;18.20;;;9.20;99.90;;;;;;5115025;28;20052;-70
2021/11/14 06:39:20;;;;;;;36.45;19.77;;;9.20;99.90;;;;;;5120878;27;20050;-70
2021/11/14 06:41:46;;;;;;;34.50;19.58;;;9.20;99.90;;;;;;5121820;27;20180;-70
2021/11/14 06:44:12;;;;;;;36.75;19.55;;;9.20;99.90;;;;;;5126385;27;20043;-70
2021/11/14 06:46:38;;;;;;;33.10;18.30;;;9.20;99.90;;;;;;5127206;27;20513;-70
2021/11/14 06:49:04;;;;;;;40.42;19.63;;;9.20;99.90;;;;;;5127772;27;20051;-70
2021/11/14 06:51:31;;;;;;;38.40;20.00;;;9.20;99.90;;;;;;5122964;28;20051;-70
2021/11/14 06:53:57;;;;;;;37.10;20.08;;;9.20;99.90;;;;;;5118857;27;20062;-70
2021/11/14 06:56:23;;;;;;;36.47;18.75;;;9.10;99.90;;;;;;5145347;27;20039;-70
2021/11/14 06:58:50;;;;;;;38.28;18.42;;;9.10;99.90;;;;;;5146406;27;20035;-70
2021/11/14 07:01:15;;;;;;;38.22;18.90;;;9.10;99.90;;;;;;5124441;27;20069;-70
2021/11/14 07:03:41;;;;;;;36.45;17.95;;;9.10;99.90;;;;;;5120730;28;20051;-70
2021/11/14 07:06:07;;;;;;;34.05;18.05;;;9.00;99.90;;;;;;5117408;27;20085;-71
2021/11/14 07:08:33;;;;;;;31.33;17.80;;;9.00;99.90;;;;;;5120474;27;20082;-70
2021/11/14 07:10:59;;;;;;;31.17;17.23;;;9.10;99.90;;;;;;5113822;28;20035;-70
2021/11/14 07:13:26;;;;;;;33.83;17.77;;;9.10;99.90;;;;;;5115378;27;20051;-70
2021/11/14 07:15:51;;;;;;;32.17;15.82;;;9.10;99.90;;;;;;5139353;27;20043;-70
2021/11/14 07:18:17;;;;;;;34.20;17.48;;;9.10;99.90;;;;;;5124160;27;20471;-70
2021/11/14 07:20:43;;;;;;;32.92;17.35;;;9.10;99.90;;;;;;5109802;27;20059;-70
2021/11/14 07:23:10;;;;;;;34.53;17.45;;;9.10;99.90;;;;;;5139002;27;20167;-70
2021/11/14 07:25:35;;;;;;;29.75;15.27;;;9.20;99.90;;;;;;5123551;27;20046;-70
2021/11/14 07:28:02;;;;;;;36.08;16.70;;;9.20;99.90;;;;;;5122615;27;20043;-70
2021/11/14 07:30:28;;;;;;;32.35;17.00;;;9.20;99.90;;;;;;5146735;27;20088;-70
2021/11/14 07:32:55;;;;;;;31.85;16.75;;;9.20;99.90;;;;;;5127696;27;20047;-70
2021/11/14 07:35:23;;;;;;;28.63;15.80;;;9.10;99.90;;;;;;5143293;27;20624;-70
2021/11/14 07:37:49;;;;;;;31.77;16.65;;;9.20;99.90;;;;;;5123966;27;20070;-70
2021/11/14 07:40:16;;;;;;;33.08;15.68;;;9.10;99.90;;;;;;5124910;27;20047;-70
2021/11/14 07:42:46;;;;;;;32.35;16.55;;;9.10;99.90;;;;;;5127364;28;20047;-70
2021/11/14 07:45:14;;;;;;;28.10;16.13;;;9.10;99.90;;;;;;5127462;27;20090;-70
2021/11/14 07:47:40;;;;;;;31.10;16.67;;;9.10;99.90;;;;;;5120175;28;20100;-70
2021/11/14 07:50:07;;;;;;;34.20;18.17;;;9.10;99.90;;;;;;5134494;27;20132;-70
2021/11/14 07:52:32;;;;;;;37.67;19.05;;;9.10;99.90;;;;;;5127376;28;20057;-70
2021/11/14 07:54:58;;;;;;;35.83;18.02;;;9.10;99.90;;;;;;5123706;27;20040;-70
2021/11/14 07:57:25;;;;;;;35.00;18.92;;;9.10;99.90;;;;;;5121523;27;20565;-70
2021/11/14 07:59:51;;;;;;;35.65;18.90;;;9.10;99.90;;;;;;5124381;28;20505;-70
2021/11/14 08:02:17;;;;;;;33.10;18.83;;;9.10;99.90;;;;;;5126839;27;20036;-70
2021/11/14 08:04:43;;;;;;;38.65;20.83;;;9.10;99.90;;;;;;5123820;28;20043;-70
2021/11/14 08:07:09;;;;;;;33.53;20.27;;;9.20;99.90;;;;;;5120600;28;20114;-70
2021/11/14 08:09:35;;;;;;;39.67;21.45;;;9.10;99.90;;;;;;5119667;28;20414;-70
2021/11/14 08:12:01;;;;;;;33.88;20.95;;;9.20;99.90;;;;;;5143929;28;20099;-71
2021/11/14 08:14:27;;;;;;;41.47;21.52;;;9.20;99.90;;;;;;5124762;27;20038;-70
2021/11/14 08:16:53;;;;;;;42.38;21.83;;;9.20;99.90;;;;;;5121386;28;20622;-71
2021/11/14 08:19:18;;;;;;;38.08;20.23;;;9.20;99.90;;;;;;5140791;27;20046;-68
2021/11/14 08:21:44;;;;;;;40.92;24.63;;;9.30;99.90;;;;;;5115932;28;20115;-68
2021/11/14 08:24:10;;;;;;;43.40;25.58;;;9.20;99.90;;;;;;5120607;27;20043;-69
2021/11/14 08:26:36;;;;;;;39.05;22.33;;;9.30;99.90;;;;;;5124346;27;20047;-67
2021/11/14 08:29:02;;;;;;;35.72;21.55;;;9.40;99.90;;;;;;5144417;27;20050;-67
2021/11/14 08:31:28;;;;;;;35.95;21.38;;;9.30;99.90;;;;;;5121627;28;20047;-69
2021/11/14 08:33:54;;;;;;;35.60;21.15;;;9.40;99.90;;;;;;5084963;27;20065;-68
2021/11/14 08:36:20;;;;;;;39.72;21.83;;;9.40;99.90;;;;;;5148986;27;20069;-68
2021/11/14 08:38:46;;;;;;;37.55;22.30;;;9.50;99.90;;;;;;5130476;27;20043;-69
2021/11/14 08:41:12;;;;;;;41.28;24.05;;;9.50;99.90;;;;;;5129487;27;20031;-68
2021/11/14 08:43:39;;;;;;;36.45;21.50;;;9.50;99.90;;;;;;5124358;27;20054;-67
2021/11/14 08:46:07;;;;;;;39.28;22.60;;;9.50;99.90;;;;;;5122047;27;20095;-67
2021/11/14 08:48:32;;;;;;;40.15;23.02;;;9.50;99.90;;;;;;5135565;27;20039;-67
2021/11/14 08:50:58;;;;;;;39.13;23.75;;;9.50;99.90;;;;;;5129151;27;20396;-67
2021/11/14 08:53:24;;;;;;;41.08;22.88;;;9.50;99.90;;;;;;5147977;27;20090;-67
2021/11/14 08:55:57;;;;;;;37.60;22.45;;;9.50;99.90;;;;;;5124302;27;20039;-67
2021/11/14 08:58:24;;;;;;;39.38;23.42;;;9.50;99.90;;;;;;5146585;27;20043;-67
2021/11/14 09:00:50;;;;;;;40.38;23.83;;;9.50;99.90;;;;;;5108500;27;20036;-67
2021/11/14 09:03:16;;;;;;;46.97;30.38;;;9.50;99.90;;;;;;5146364;27;20058;-67
2021/11/14 09:05:42;;;;;;;40.95;25.88;;;9.50;99.90;;;;;;5147805;27;20046;-67
2021/11/14 09:08:08;;;;;;;37.75;24.63;;;9.50;99.90;;;;;;5147257;27;20050;-67
2021/11/14 09:10:37;;;;;;;39.92;24.52;;;9.50;99.90;;;;;;5140634;27;20043;-67
2021/11/14 09:13:03;;;;;;;38.20;22.30;;;9.50;99.90;;;;;;5147589;27;20130;-67
2021/11/14 09:15:30;;;;;;;40.40;23.33;;;9.50;99.90;;;;;;5147558;27;20027;-67
2021/11/14 09:17:58;;;;;;;38.78;24.98;;;9.50;99.90;;;;;;5122376;27;20039;-67
2021/11/14 09:20:24;;;;;;;40.95;24.40;;;9.60;99.90;;;;;;5126297;28;20067;-66
2021/11/14 09:22:50;;;;;;;43.78;25.58;;;9.60;99.90;;;;;;5143160;27;20058;-67
2021/11/14 09:25:17;;;;;;;44.90;25.60;;;9.60;99.90;;;;;;5143065;27;20530;-69
2021/11/14 09:27:43;;;;;;;39.70;26.25;;;9.60;99.90;;;;;;5127011;27;20179;-70
2021/11/14 09:30:10;;;;;;;41.10;26.67;;;9.60;99.90;;;;;;5129560;27;20047;-72
2021/11/14 09:32:37;;;;;;;33.80;23.25;;;9.50;99.90;;;;;;5126046;27;20035;-69
2021/11/14 09:35:03;;;;;;;36.70;24.00;;;9.60;99.90;;;;;;5141899;27;20237;-69
2021/11/14 09:37:29;;;;;;;34.50;22.83;;;9.60;99.90;;;;;;5128435;27;20039;-73
2021/11/14 09:39:55;;;;;;;37.33;23.10;;;9.60;99.90;;;;;;5126755;27;20079;-74
2021/11/14 09:42:25;;;;;;;33.08;21.58;;;9.60;99.90;;;;;;5122484;27;20070;-74
2021/11/14 09:44:51;;;;;;;32.63;21.30;;;9.70;99.90;;;;;;5139352;27;20035;-75
2021/11/14 09:47:18;;;;;;;33.22;21.67;;;9.70;99.90;;;;;;5146444;27;20043;-69
2021/11/14 09:49:44;;;;;;;38.38;23.48;;;9.60;99.90;;;;;;5143549;27;20096;-69
2021/11/14 09:52:11;;;;;;;36.58;22.10;;;9.60;99.90;;;;;;5126285;27;20084;-69
2021/11/14 09:54:38;;;;;;;35.88;22.38;;;9.60;99.90;;;;;;5143309;27;20043;-70
2021/11/14 09:57:05;;;;;;;38.30;22.65;;;9.60;99.90;;;;;;5121634;27;20062;-69
2021/11/14 09:59:30;;;;;;;38.72;23.25;;;9.60;99.90;;;;;;5122028;27;20138;-69
2021/11/14 10:01:59;;;;;;;37.20;22.77;;;9.60;99.90;;;;;;5105486;27;20068;-69
2021/11/14 10:04:25;;;;;;;36.40;23.45;;;9.70;99.90;;;;;;5146776;27;20429;-69
2021/11/14 10:07:18;;;;;;;38.88;23.52;;;9.70;99.90;;;;;;5121347;27;20082;-69
2021/11/14 10:09:51;;;;;;;38.10;22.63;;;9.60;99.90;;;;;;5117820;28;20116;-62
2021/11/14 10:12:24;;;;;;;37.67;22.33;;;9.60;99.90;;;;;;5120255;27;20522;-64
2021/11/14 10:15:14;;;;;;;38.22;23.85;;;9.70;99.90;;;;;;5143933;27;20047;-63
2021/11/14 10:17:45;;;;;;;40.70;24.20;;;9.60;99.90;;;;;;5143475;27;20062;-63
2021/11/14 10:20:12;;;;;;;44.30;25.42;;;9.70;99.90;;;;;;5140488;27;20043;-63
2021/11/14 10:22:41;;;;;;;37.75;24.27;;;9.70;99.90;;;;;;5133298;27;20047;-63
2021/11/14 10:25:09;;;;;;;47.92;26.90;;;9.70;99.90;;;;;;5122942;27;20073;-63
2021/11/14 10:27:34;;;;;;;44.72;26.23;;;9.70;99.90;;;;;;5141311;27;20050;-63
2021/11/14 10:30:01;;;;;;;47.78;27.23;;;9.70;99.90;;;;;;5143084;27;20032;-63
2021/11/14 10:32:27;;;;;;;43.17;26.17;;;9.70;99.90;;;;;;5141621;27;20086;-63
2021/11/14 10:34:59;;;;;;;46.30;27.13;;;9.80;99.90;;;;;;5136848;27;20048;-63
2021/11/14 10:37:27;;;;;;;45.33;26.30;;;9.80;99.90;;;;;;5120168;27;20062;-63
2021/11/14 10:39:55;;;;;;;46.25;26.35;;;9.80;99.90;;;;;;5121060;27;20054;-63
2021/11/14 10:42:28;;;;;;;44.60;26.13;;;9.80;99.90;;;;;;5136960;27;20054;-64
2021/11/14 10:44:57;;;;;;;39.22;24.60;;;9.80;99.90;;;;;;5144492;27;20039;-64
2021/11/14 10:47:24;;;;;;;41.30;25.60;;;9.80;99.90;;;;;;5136734;27;20521;-65
2021/11/14 10:49:54;;;;;;;43.47;25.83;;;9.90;99.90;;;;;;5121743;27;20082;-65
2021/11/14 10:52:21;;;;;;;40.70;24.52;;;9.90;99.90;;;;;;5115575;28;20505;-64
2021/11/14 10:54:56;;;;;;;45.35;25.75;;;9.80;99.90;;;;;;5116087;27;20471;-65
2021/11/14 10:57:27;;;;;;;46.25;27.17;;;9.80;99.90;;;;;;5120299;27;20039;-64
2021/11/14 10:59:53;;;;;;;48.53;26.92;;;9.80;99.90;;;;;;5115325;27;20035;-64
2021/11/14 11:02:21;;;;;;;45.55;26.65;;;9.80;99.90;;;;;;5142820;27;20039;-64
2021/11/14 11:04:48;;;;;;;46.85;28.10;;;9.80;99.90;;;;;;5125856;27;20039;-64
2021/11/14 11:07:14;;;;;;;48.95;27.42;;;9.80;99.90;;;;;;5142248;27;20391;-64
2021/11/14 11:09:42;;;;;;;49.78;28.02;;;9.90;99.90;;;;;;5132876;27;20039;-64
2021/11/14 11:12:20;;;;;;;47.35;27.83;;;9.90;99.90;;;;;;5122288;27;20051;-64
2021/11/14 11:14:57;;;;;;;48.72;28.73;;;9.90;99.90;;;;;;5105440;27;20063;-63
2021/11/14 11:17:25;;;;;;;53.17;30.38;;;9.90;99.90;;;;;;5074537;27;20556;-66
2021/11/14 11:19:52;;;;;;;54.28;29.40;;;10.00;99.90;;;;;;5108512;27;20058;-63
2021/11/14 11:22:18;;;;;;;51.17;28.40;;;10.00;99.90;;;;;;5093898;27;20054;-66
2021/11/14 11:24:50;;;;;;;52.08;28.70;;;10.00;99.90;;;;;;5112941;27;20047;-66
2021/11/14 11:27:17;;;;;;;55.78;30.23;;;10.00;99.90;;;;;;5111705;27;20073;-66
2021/11/14 11:29:43;;;;;;;52.38;28.95;;;10.00;99.90;;;;;;5114961;27;20066;-65
2021/11/14 11:32:11;;;;;;;50.88;29.13;;;10.00;99.90;;;;;;5103343;27;20073;-66
2021/11/14 11:34:38;;;;;;;48.72;27.30;;;9.90;99.90;;;;;;5123918;27;20046;-66
2021/11/14 11:37:05;;;;;;;50.47;28.63;;;10.00;99.90;;;;;;5119022;27;20046;-66
2021/11/14 11:39:31;;;;;;;49.72;27.40;;;9.90;99.90;;;;;;5123143;27;20055;-65
2021/11/14 11:42:01;;;;;;;57.85;31.10;;;10.00;99.90;;;;;;5113537;28;20040;-66
2021/11/14 11:44:28;;;;;;;58.22;29.30;;;10.00;99.90;;;;;;5071631;27;20080;-65
2021/11/14 11:47:01;;;;;;;55.38;29.00;;;10.10;99.90;;;;;;5116170;27;20042;-63
2021/11/14 11:49:28;;;;;;;50.63;28.77;;;10.10;99.90;;;;;;5090933;27;20093;-63
2021/11/14 11:51:56;;;;;;;51.92;28.55;;;10.10;99.90;;;;;;5134245;27;20056;-63
2021/11/14 11:54:25;;;;;;;50.30;29.23;;;10.00;99.90;;;;;;5126860;27;20053;-63
2021/11/14 11:57:11;;;;;;;46.20;26.80;;;10.10;99.90;;;;;;5111827;27;20125;-63
2021/11/14 11:59:52;;;;;;;52.00;27.73;;;10.10;99.90;;;;;;5089013;28;20157;-64
2021/11/14 12:02:26;;;;;;;51.47;26.70;;;10.10;99.90;;;;;;5106317;28;20066;-63
2021/11/14 12:04:54;;;;;;;46.67;25.98;;;10.00;99.90;;;;;;5108080;27;20118;-63
2021/11/14 12:07:26;;;;;;;44.90;26.02;;;10.10;99.90;;;;;;5123482;27;20077;-63
2021/11/14 12:09:55;;;;;;;42.47;25.52;;;10.20;99.90;;;;;;5111709;28;20099;-63
2021/11/14 12:12:32;;;;;;;43.83;24.95;;;10.10;99.90;;;;;;5107544;28;20369;-63
2021/11/14 12:15:16;;;;;;;44.63;24.85;;;10.10;99.90;;;;;;5107777;28;20055;-63
2021/11/14 12:17:55;;;;;;;44.97;25.20;;;10.00;99.90;;;;;;5101883;28;20051;-63
2021/11/14 12:20:34;;;;;;;44.83;24.95;;;10.00;99.90;;;;;;5116532;28;20142;-63
2021/11/14 12:23:16;;;;;;;42.63;25.15;;;10.10;99.90;;;;;;5107540;28;20480;-63
2021/11/14 12:25:45;;;;;;;45.22;26.15;;;10.00;99.90;;;;;;5113257;28;20116;-63
2021/11/14 12:28:15;;;;;;;41.70;24.83;;;10.00;99.90;;;;;;5125346;27;20520;-63
2021/11/14 12:31:01;;;;;;;41.95;26.05;;;10.00;99.90;;;;;;5135601;27;20043;-62
2021/11/14 12:33:31;;;;;;;39.65;23.92;;;10.10;99.90;;;;;;5106588;28;20622;-62
2021/11/14 12:36:03;;;;;;;45.83;27.05;;;10.00;99.90;;;;;;5111530;28;20417;-62
2021/11/14 12:38:31;;;;;;;46.08;25.77;;;10.00;99.90;;;;;;5100762;28;20077;-63